createdAt,value
2019-05-06T00:00:30.587Z,66.40
2019-05-06T00:03:00.372Z,66.70
2019-05-06T00:05:30.444Z,66.30
2019-05-06T00:08:00.452Z,66.40
2019-05-06T00:10:34.148Z,66.90
2019-05-06T00:13:04.799Z,67.50
2019-05-06T00:15:35.059Z,66.90
2019-05-06T00:18:04.949Z,66.80
2019-05-06T00:20:35.223Z,67.10
2019-05-06T00:23:09.887Z,67.00
2019-05-06T00:25:54.601Z,66.60
2019-05-06T00:28:30.030Z,66.40
2019-05-06T00:31:11.306Z,66.70
2019-05-06T00:33:34.089Z,67.10
2019-05-06T00:36:04.793Z,66.80
2019-05-06T00:38:36.225Z,66.70
2019-05-06T00:41:17.237Z,66.70
2019-05-06T00:43:47.159Z,67.00
2019-05-06T00:46:16.984Z,67.00
2019-05-06T00:48:46.769Z,66.90
2019-05-06T00:51:16.520Z,66.80
2019-05-06T00:53:54.394Z,67.00
2019-05-06T00:56:25.429Z,67.00
2019-05-06T00:58:55.241Z,66.80
2019-05-06T01:01:29.420Z,67.00
2019-05-06T01:03:57.041Z,67.10
2019-05-06T01:06:26.856Z,67.40
2019-05-06T01:09:10.111Z,67.70
2019-05-06T01:11:40.758Z,67.70
2019-05-06T01:14:18.929Z,67.50
2019-05-06T01:16:48.742Z,67.60
2019-05-06T01:19:18.652Z,67.60
2019-05-06T01:21:48.486Z,67.70
2019-05-06T01:24:18.338Z,67.90
2019-05-06T01:26:48.226Z,68.00
2019-05-06T01:29:18.144Z,68.10
2019-05-06T01:31:47.950Z,68.00
2019-05-06T01:34:18.196Z,67.80
2019-05-06T01:36:48.175Z,67.50
2019-05-06T01:39:19.593Z,67.60
2019-05-06T01:41:59.885Z,67.40
2019-05-06T01:44:29.797Z,67.40
2019-05-06T01:46:59.622Z,67.80
2019-05-06T01:49:29.530Z,67.90
2019-05-06T01:51:59.659Z,68.10
2019-05-06T01:54:29.411Z,68.30
2019-05-06T01:56:59.238Z,68.30
2019-05-06T01:59:28.997Z,68.40
2019-05-06T02:02:01.237Z,68.10
2019-05-06T02:04:31.188Z,68.30
2019-05-06T02:07:01.236Z,68.50
2019-05-06T02:09:31.054Z,68.80
2019-05-06T02:12:01.146Z,69.10
2019-05-06T02:14:30.945Z,69.60
2019-05-06T02:17:00.742Z,69.00
2019-05-06T02:19:31.525Z,69.10
2019-05-06T02:22:04.324Z,69.20
2019-05-06T02:24:35.921Z,69.20
2019-05-06T02:27:06.659Z,69.10
2019-05-06T02:29:43.495Z,69.50
2019-05-06T02:32:27.128Z,69.80
2019-05-06T02:34:57.587Z,69.70
2019-05-06T02:37:46.752Z,69.60
2019-05-06T02:40:25.844Z,70.00
2019-05-06T02:42:56.436Z,70.00
2019-05-06T02:45:26.388Z,69.90
2019-05-06T02:48:07.144Z,69.70
2019-05-06T02:50:47.685Z,69.80
2019-05-06T02:53:19.262Z,69.90
2019-05-06T02:55:49.092Z,70.00
2019-05-06T02:58:18.867Z,70.00
2019-05-06T03:00:48.781Z,70.00
2019-05-06T03:03:18.542Z,70.20
2019-05-06T03:05:48.350Z,70.00
2019-05-06T03:08:18.119Z,69.80
2019-05-06T03:10:48.079Z,69.40
2019-05-06T03:13:17.882Z,69.60
2019-05-06T03:15:48.603Z,69.90
2019-05-06T03:18:18.390Z,70.20
2019-05-06T03:20:55.761Z,70.00
2019-05-06T03:23:34.948Z,69.60
2019-05-06T03:26:06.624Z,69.70
2019-05-06T03:28:37.003Z,69.90
2019-05-06T03:31:08.095Z,69.60
2019-05-06T03:33:55.417Z,69.90
2019-05-06T03:36:23.636Z,69.90
2019-05-06T03:38:43.159Z,70.00
2019-05-06T03:41:13.849Z,69.90
2019-05-06T03:43:44.111Z,70.00
2019-05-06T03:46:15.756Z,70.00
2019-05-06T03:48:47.609Z,70.10
2019-05-06T03:51:17.544Z,70.10
2019-05-06T03:53:47.586Z,70.10
2019-05-06T03:56:19.918Z,69.90
2019-05-06T03:58:53.690Z,70.60
2019-05-06T04:01:23.976Z,70.20
2019-05-06T04:03:57.284Z,70.10
2019-05-06T04:06:26.877Z,70.20
2019-05-06T04:08:57.606Z,70.30
2019-05-06T04:11:27.949Z,70.30
2019-05-06T04:14:02.761Z,70.20
2019-05-06T04:16:39.930Z,70.40
2019-05-06T04:19:13.193Z,70.50
2019-05-06T04:21:58.480Z,70.60
2019-05-06T04:24:45.077Z,70.60
2019-05-06T04:27:33.857Z,70.50
2019-05-06T04:30:05.057Z,70.60
2019-05-06T04:32:35.218Z,70.80
2019-05-06T04:35:06.261Z,70.70
2019-05-06T04:37:36.173Z,70.30
2019-05-06T04:40:07.344Z,70.10
2019-05-06T04:42:37.514Z,69.70
2019-05-06T04:45:07.746Z,69.40
2019-05-06T04:47:37.708Z,69.30
2019-05-06T04:50:09.027Z,69.10
2019-05-06T04:52:38.910Z,69.10
2019-05-06T04:55:09.518Z,69.30
2019-05-06T04:57:39.364Z,69.50
2019-05-06T05:00:12.995Z,69.20
2019-05-06T05:02:46.305Z,69.20
2019-05-06T05:05:14.509Z,69.10
2019-05-06T05:07:44.320Z,69.40
2019-05-06T05:10:16.708Z,69.50
2019-05-06T05:13:03.550Z,69.30
2019-05-06T05:15:44.763Z,69.10
2019-05-06T05:18:32.141Z,69.30
2019-05-06T05:21:02.434Z,69.10
2019-05-06T05:23:33.329Z,69.20
2019-05-06T05:26:03.993Z,69.30
2019-05-06T05:28:34.554Z,69.20
2019-05-06T05:31:04.420Z,69.00
2019-05-06T05:33:34.648Z,68.90
2019-05-06T05:36:04.536Z,68.50
2019-05-06T05:38:34.354Z,68.30
2019-05-06T05:41:04.157Z,67.90
2019-05-06T05:43:42.409Z,67.80
2019-05-06T05:46:12.713Z,67.50
2019-05-06T05:48:45.663Z,67.20
2019-05-06T05:51:15.856Z,66.90
2019-05-06T05:53:45.779Z,66.70
2019-05-06T05:56:15.797Z,66.50
2019-05-06T05:58:45.774Z,66.40
2019-05-06T06:01:15.716Z,67.30
2019-05-06T06:03:46.062Z,66.40
2019-05-06T06:06:16.125Z,66.40
2019-05-06T06:08:46.190Z,66.20
2019-05-06T06:11:23.872Z,66.00
2019-05-06T06:13:54.729Z,66.00
2019-05-06T06:16:43.541Z,65.70
2019-05-06T06:19:25.678Z,65.20
2019-05-06T06:22:00.191Z,64.90
2019-05-06T06:24:32.221Z,64.70
2019-05-06T06:27:03.059Z,64.70
2019-05-06T06:29:34.372Z,64.50
2019-05-06T06:32:14.853Z,64.40
2019-05-06T06:35:10.644Z,64.10
2019-05-06T06:37:37.042Z,63.90
2019-05-06T06:40:09.614Z,63.10
2019-05-06T06:42:39.538Z,62.90
2019-05-06T06:45:09.694Z,62.70
2019-05-06T06:47:39.678Z,62.40
2019-05-06T06:50:09.672Z,62.10
2019-05-06T06:52:41.992Z,62.10
2019-05-06T06:55:12.944Z,62.10
2019-05-06T06:57:49.166Z,62.20
2019-05-06T07:00:23.116Z,61.90
2019-05-06T07:02:57.841Z,61.60
2019-05-06T07:05:29.614Z,61.90
2019-05-06T07:07:59.592Z,61.60
2019-05-06T07:10:45.705Z,61.40
2019-05-06T07:13:16.882Z,61.10
2019-05-06T07:15:47.552Z,60.60
2019-05-06T07:18:17.447Z,60.00
2019-05-06T07:21:05.177Z,59.70
2019-05-06T07:23:38.307Z,59.00
2019-05-06T07:26:12.096Z,58.60
2019-05-06T07:28:43.699Z,58.80
2019-05-06T07:31:21.784Z,58.60
2019-05-06T07:33:45.395Z,58.40
2019-05-06T07:36:15.288Z,58.10
2019-05-06T07:38:52.670Z,58.20
2019-05-06T07:41:32.612Z,57.00
2019-05-06T07:44:19.331Z,57.70
2019-05-06T07:47:03.361Z,57.70
2019-05-06T07:49:32.938Z,57.80
2019-05-06T07:52:03.106Z,58.00
2019-05-06T07:54:33.211Z,58.10
2019-05-06T07:57:03.057Z,57.80
2019-05-06T07:59:33.507Z,57.20
2019-05-06T08:02:04.454Z,56.50
2019-05-06T08:04:34.294Z,55.50
2019-05-06T08:07:05.269Z,54.50
2019-05-06T08:09:35.067Z,53.90
2019-05-06T08:12:05.269Z,53.90
2019-05-06T08:14:43.186Z,53.00
2019-05-06T08:17:23.230Z,52.30
2019-05-06T08:19:53.206Z,51.40
2019-05-06T08:22:33.376Z,51.00
2019-05-06T08:25:05.465Z,50.00
2019-05-06T08:27:35.279Z,49.20
2019-05-06T08:30:07.989Z,48.90
2019-05-06T08:32:37.842Z,49.10
2019-05-06T08:35:10.031Z,49.20
2019-05-06T08:37:43.006Z,48.20
2019-05-06T08:40:13.182Z,48.40
2019-05-06T08:42:43.046Z,48.30
2019-05-06T08:45:13.581Z,48.20
2019-05-06T08:47:43.490Z,47.90
2019-05-06T08:50:21.893Z,47.70
2019-05-06T08:53:06.429Z,47.90
2019-05-06T08:55:46.839Z,47.40
2019-05-06T08:58:16.738Z,48.10
2019-05-06T09:00:49.085Z,48.60
2019-05-06T09:03:19.175Z,48.60
2019-05-06T09:05:54.866Z,48.50
2019-05-06T09:08:25.022Z,47.20
2019-05-06T09:10:54.902Z,47.10
2019-05-06T09:13:25.486Z,47.20
2019-05-06T09:15:56.521Z,47.40
2019-05-06T09:18:26.425Z,47.10
2019-05-06T09:20:56.284Z,46.70
2019-05-06T09:23:27.608Z,46.30
2019-05-06T09:25:57.670Z,46.80
2019-05-06T09:28:34.710Z,44.90
2019-05-06T09:31:09.564Z,44.60
2019-05-06T09:33:42.018Z,43.30
2019-05-06T09:36:12.807Z,40.80
2019-05-06T09:38:42.722Z,39.70
2019-05-06T09:41:12.702Z,38.40
2019-05-06T09:43:43.293Z,37.30
2019-05-06T09:46:13.385Z,37.10
2019-05-06T09:49:03.141Z,36.20
2019-05-06T09:51:32.557Z,35.00
2019-05-06T09:54:05.267Z,34.20
2019-05-06T09:56:49.885Z,33.50
2019-05-06T09:59:21.568Z,32.30
2019-05-06T10:01:52.774Z,33.00
2019-05-06T10:04:22.874Z,32.20
2019-05-06T10:06:57.369Z,33.00
2019-05-06T10:09:25.068Z,33.70
2019-05-06T10:11:55.062Z,34.80
2019-05-06T10:14:25.085Z,34.50
2019-05-06T10:16:54.947Z,35.00
2019-05-06T10:19:25.681Z,35.20
2019-05-06T10:21:55.522Z,34.90
2019-05-06T10:24:25.390Z,35.40
2019-05-06T10:26:56.828Z,35.50
2019-05-06T10:29:32.595Z,35.40
2019-05-06T10:32:19.326Z,34.90
2019-05-06T10:34:49.236Z,34.90
2019-05-06T10:37:33.565Z,35.50
2019-05-06T10:40:22.699Z,34.70
2019-05-06T10:43:26.825Z,34.10
2019-05-06T10:45:56.826Z,34.50
2019-05-06T10:48:28.339Z,35.10
2019-05-06T10:51:17.056Z,35.00
2019-05-06T10:53:47.058Z,35.70
2019-05-06T10:56:28.082Z,36.20
2019-05-06T10:58:59.605Z,36.30
2019-05-06T11:01:43.219Z,37.00
2019-05-06T11:04:13.147Z,37.00
2019-05-06T11:06:43.693Z,37.20
2019-05-06T11:09:13.656Z,35.80
2019-05-06T11:11:43.538Z,36.40
2019-05-06T11:14:13.457Z,36.80
2019-05-06T11:16:43.265Z,37.00
2019-05-06T11:19:13.393Z,37.20
2019-05-06T11:21:45.067Z,36.60
2019-05-06T11:24:14.863Z,36.70
2019-05-06T11:26:44.742Z,36.50
2019-05-06T11:29:20.370Z,36.50
2019-05-06T11:32:03.807Z,35.70
2019-05-06T11:37:24.693Z,36.50
2019-05-06T11:39:54.566Z,36.20
2019-05-06T11:42:31.690Z,36.50
2019-05-06T11:44:56.065Z,36.80
2019-05-06T11:47:25.930Z,37.20
2019-05-06T11:49:57.508Z,37.20
2019-05-06T11:52:27.478Z,37.70
2019-05-06T11:54:58.990Z,38.10
2019-05-06T11:57:28.946Z,38.80
2019-05-06T11:59:59.142Z,39.10
2019-05-06T12:02:28.955Z,39.20
2019-05-06T12:05:02.173Z,39.30
2019-05-06T12:07:33.184Z,39.60
2019-05-06T12:10:03.638Z,39.60
2019-05-06T12:12:33.660Z,40.10
2019-05-06T12:15:07.259Z,40.70
2019-05-06T12:17:38.274Z,40.30
2019-05-06T12:20:08.230Z,40.40
2019-05-06T12:22:38.093Z,40.50
2019-05-06T12:25:11.777Z,41.00
2019-05-06T12:27:47.036Z,41.00
2019-05-06T12:30:23.514Z,41.30
2019-05-06T12:33:04.714Z,40.90
2019-05-06T12:35:36.621Z,40.90
2019-05-06T12:38:24.001Z,40.70
2019-05-06T12:40:42.917Z,40.30
2019-05-06T12:43:30.140Z,41.00
2019-05-06T12:46:04.502Z,40.70
2019-05-06T12:48:36.142Z,40.60
2019-05-06T12:51:06.077Z,40.10
2019-05-06T12:53:35.905Z,39.90
2019-05-06T12:56:05.870Z,38.90
2019-05-06T12:58:36.522Z,38.30
2019-05-06T13:01:07.084Z,38.30
2019-05-06T13:03:36.894Z,38.60
2019-05-06T13:06:08.795Z,39.00
2019-05-06T13:08:53.955Z,39.00
2019-05-06T13:11:12.966Z,39.30
2019-05-06T13:13:56.529Z,39.30
2019-05-06T13:16:14.997Z,39.50
2019-05-06T13:18:47.698Z,39.70
2019-05-06T13:21:16.813Z,39.90
2019-05-06T13:23:54.811Z,39.70
2019-05-06T13:26:24.630Z,38.40
2019-05-06T13:28:56.200Z,37.90
2019-05-06T13:31:26.022Z,37.70
2019-05-06T13:33:57.646Z,38.60
2019-05-06T13:36:27.520Z,37.90
2019-05-06T13:39:13.269Z,38.00
2019-05-06T13:41:28.971Z,38.10
2019-05-06T13:44:03.185Z,38.20
2019-05-06T13:46:34.724Z,38.20
2019-05-06T13:49:06.360Z,38.30
2019-05-06T13:51:38.607Z,38.10
2019-05-06T13:54:08.830Z,38.10
2019-05-06T13:56:38.812Z,38.00
2019-05-06T13:59:08.608Z,38.10
2019-05-06T14:01:43.924Z,38.50
2019-05-06T14:04:16.530Z,38.80
2019-05-06T14:06:46.393Z,37.70
2019-05-06T14:09:28.362Z,37.40
2019-05-06T14:11:47.883Z,37.50
2019-05-06T14:14:17.773Z,37.70
2019-05-06T14:16:47.679Z,37.60
2019-05-06T14:19:17.496Z,37.90
2019-05-06T14:21:48.101Z,38.00
2019-05-06T14:24:18.106Z,38.60
2019-05-06T14:27:02.368Z,38.50
2019-05-06T14:29:33.225Z,38.30
2019-05-06T14:32:04.106Z,38.50
2019-05-06T14:34:33.995Z,38.80
2019-05-06T14:37:03.850Z,38.60
2019-05-06T14:39:50.010Z,38.30
2019-05-06T14:42:06.811Z,38.50
2019-05-06T14:44:36.646Z,38.20
2019-05-06T14:47:08.182Z,38.40
2019-05-06T14:49:38.055Z,38.60
2019-05-06T14:52:07.977Z,38.20
2019-05-06T14:54:52.967Z,38.00
2019-05-06T14:57:23.335Z,37.40
2019-05-06T14:59:55.485Z,37.10
2019-05-06T15:02:27.233Z,36.80
2019-05-06T15:04:57.341Z,37.10
2019-05-06T15:07:27.230Z,36.70
2019-05-06T15:10:15.141Z,37.00
2019-05-06T15:12:29.743Z,37.10
2019-05-06T15:14:59.648Z,37.10
2019-05-06T15:17:29.483Z,35.70
2019-05-06T15:19:59.275Z,36.20
2019-05-06T15:22:29.102Z,36.30
2019-05-06T15:24:58.982Z,36.20
2019-05-06T15:27:28.950Z,36.20
2019-05-06T15:30:04.142Z,36.00
2019-05-06T15:32:36.311Z,36.10
2019-05-06T15:35:22.981Z,36.00
2019-05-06T15:37:57.469Z,36.40
2019-05-06T15:40:32.983Z,36.50
2019-05-06T15:42:58.893Z,36.60
2019-05-06T15:45:28.868Z,36.80
2019-05-06T15:47:59.380Z,36.80
2019-05-06T15:50:29.288Z,36.40
2019-05-06T15:53:01.811Z,36.80
2019-05-06T15:55:32.673Z,36.80
2019-05-06T15:58:03.672Z,36.70
2019-05-06T16:00:33.634Z,36.70
2019-05-06T16:03:03.665Z,36.80
2019-05-06T16:05:34.492Z,36.90
2019-05-06T16:08:05.186Z,37.10
2019-05-06T16:10:51.234Z,37.40
2019-05-06T16:13:06.717Z,37.30
2019-05-06T16:15:36.586Z,37.50
2019-05-06T16:18:06.784Z,37.30
2019-05-06T16:20:36.692Z,37.40
2019-05-06T16:23:11.093Z,37.40
2019-05-06T16:25:42.323Z,37.50
2019-05-06T16:28:12.978Z,37.40
2019-05-06T16:30:43.017Z,37.70
2019-05-06T16:33:15.326Z,37.40
2019-05-06T16:35:44.505Z,37.70
2019-05-06T16:38:14.330Z,37.70
2019-05-06T16:40:45.390Z,37.90
2019-05-06T16:43:16.334Z,37.90
2019-05-06T16:45:46.153Z,38.40
2019-05-06T16:48:15.928Z,38.20
2019-05-06T16:50:45.826Z,38.10
2019-05-06T16:53:15.641Z,38.40
2019-05-06T16:55:58.990Z,38.30
2019-05-06T16:58:39.213Z,38.00
2019-05-06T17:01:09.418Z,38.10
2019-05-06T17:03:43.851Z,38.30
2019-05-06T17:06:18.328Z,38.20
2019-05-06T17:08:48.333Z,38.40
2019-05-06T17:11:28.159Z,38.40
2019-05-06T17:13:49.625Z,38.60
2019-05-06T17:16:19.441Z,38.70
2019-05-06T17:18:49.381Z,38.50
2019-05-06T17:21:19.201Z,38.50
2019-05-06T17:23:48.969Z,38.80
2019-05-06T17:26:18.798Z,38.80
2019-05-06T17:29:02.784Z,38.90
2019-05-06T17:31:49.825Z,39.10
2019-05-06T17:34:26.101Z,39.10
2019-05-06T17:36:57.627Z,39.40
2019-05-06T17:39:27.397Z,39.30
2019-05-06T17:41:57.170Z,39.50
2019-05-06T17:44:27.137Z,39.60
2019-05-06T17:46:58.666Z,39.70
2019-05-06T17:49:30.878Z,39.90
2019-05-06T17:52:05.064Z,39.90
2019-05-06T17:54:35.086Z,39.90
2019-05-06T17:57:05.067Z,40.00
2019-05-06T17:59:37.448Z,40.60
2019-05-06T18:02:08.092Z,40.70
2019-05-06T18:04:37.921Z,40.70
2019-05-06T18:07:07.697Z,40.70
2019-05-06T18:09:37.610Z,40.70
2019-05-06T18:12:07.505Z,40.70
2019-05-06T18:14:37.358Z,40.80
2019-05-06T18:17:07.126Z,41.10
2019-05-06T18:19:36.925Z,41.20
2019-05-06T18:22:06.709Z,41.40
2019-05-06T18:24:36.532Z,41.50
2019-05-06T18:27:06.441Z,41.50
2019-05-06T18:29:36.292Z,41.30
2019-05-06T18:32:06.068Z,41.40
2019-05-06T18:34:35.846Z,41.40
2019-05-06T18:37:05.678Z,41.70
2019-05-06T18:39:35.585Z,41.70
2019-05-06T18:42:16.867Z,41.90
2019-05-06T18:44:38.993Z,42.30
2019-05-06T18:47:08.770Z,42.10
2019-05-06T18:49:38.828Z,42.30
2019-05-06T18:52:08.745Z,42.60
2019-05-06T18:54:39.788Z,42.80
2019-05-06T18:57:09.623Z,42.90
2019-05-06T18:59:39.397Z,43.20
2019-05-06T19:02:09.957Z,43.30
2019-05-06T19:04:41.968Z,43.50
2019-05-06T19:07:16.203Z,43.50
2019-05-06T19:09:45.333Z,43.60
2019-05-06T19:12:28.935Z,43.60
2019-05-06T19:14:46.833Z,43.60
2019-05-06T19:17:17.140Z,43.50
2019-05-06T19:19:47.059Z,43.60
2019-05-06T19:22:16.864Z,43.70
2019-05-06T19:24:46.653Z,43.70
2019-05-06T19:27:16.605Z,43.70
2019-05-06T19:29:46.418Z,44.10
2019-05-06T19:32:16.361Z,45.00
2019-05-06T19:34:46.200Z,45.90
2019-05-06T19:37:16.009Z,46.20
2019-05-06T19:39:58.143Z,46.60
2019-05-06T19:42:28.393Z,46.80
2019-05-06T19:44:58.389Z,46.70
2019-05-06T19:47:28.210Z,46.70
2019-05-06T19:49:58.553Z,47.20
2019-05-06T19:52:29.082Z,47.30
2019-05-06T19:54:58.892Z,47.50
2019-05-06T19:57:29.237Z,47.60
2019-05-06T20:00:00.023Z,47.70
2019-05-06T20:02:31.862Z,48.10
2019-05-06T20:05:09.326Z,48.40
2019-05-06T20:07:45.794Z,48.30
2019-05-06T20:10:17.266Z,48.50
2019-05-06T20:12:59.493Z,48.60
2019-05-06T20:15:35.030Z,48.90
2019-05-06T20:18:06.333Z,48.90
2019-05-06T20:20:38.266Z,48.90
2019-05-06T20:23:08.072Z,49.10
2019-05-06T20:25:37.849Z,49.10
2019-05-06T20:28:07.665Z,49.30
2019-05-06T20:30:37.603Z,48.90
2019-05-06T20:33:07.441Z,49.10
2019-05-06T20:35:37.262Z,49.30
2019-05-06T20:38:07.127Z,49.60
2019-05-06T20:40:38.543Z,49.90
2019-05-06T20:43:19.350Z,49.90
2019-05-06T20:45:42.512Z,49.80
2019-05-06T20:48:12.944Z,49.80
2019-05-06T20:50:56.506Z,49.90
2019-05-06T20:53:27.051Z,50.00
2019-05-06T20:55:57.006Z,50.00
2019-05-06T20:58:27.905Z,49.80
2019-05-06T21:00:57.725Z,49.90
2019-05-06T21:03:27.748Z,49.80
2019-05-06T21:05:57.642Z,49.60
2019-05-06T21:08:27.524Z,49.40
2019-05-06T21:10:57.365Z,49.50
2019-05-06T21:13:32.136Z,49.40
2019-05-06T21:15:59.025Z,49.80
2019-05-06T21:18:28.934Z,49.80
2019-05-06T21:20:59.093Z,50.10
2019-05-06T21:23:31.964Z,50.10
2019-05-06T21:26:03.279Z,50.30
2019-05-06T21:28:32.699Z,50.40
2019-05-06T21:31:03.178Z,50.60
2019-05-06T21:33:33.077Z,51.20
2019-05-06T21:36:03.294Z,51.40
2019-05-06T21:38:33.157Z,51.80
2019-05-06T21:41:03.018Z,52.10
2019-05-06T21:43:46.071Z,52.60
2019-05-06T21:46:05.394Z,52.70
2019-05-06T21:48:35.565Z,52.80
2019-05-06T21:51:05.492Z,53.00
2019-05-06T21:53:35.993Z,53.00
2019-05-06T21:56:05.830Z,53.10
2019-05-06T21:58:35.593Z,53.30
2019-05-06T22:01:07.181Z,53.40
2019-05-06T22:03:38.728Z,53.60
2019-05-06T22:06:09.971Z,53.70
2019-05-06T22:08:39.828Z,54.90
2019-05-06T22:11:09.889Z,54.40
2019-05-06T22:13:42.368Z,54.50
2019-05-06T22:16:12.326Z,55.00
2019-05-06T22:18:43.226Z,55.40
2019-05-06T22:21:18.877Z,55.20
2019-05-06T22:26:36.028Z,55.40
2019-05-06T22:29:06.174Z,55.70
2019-05-06T22:31:35.932Z,55.50
2019-05-06T22:34:05.701Z,55.80
2019-05-06T22:36:35.635Z,56.10
2019-05-06T22:39:06.678Z,56.20
2019-05-06T22:41:37.918Z,56.20
2019-05-06T22:44:13.803Z,56.30
2019-05-06T22:46:39.399Z,56.50
2019-05-06T22:49:09.219Z,56.80
2019-05-06T22:51:39.385Z,56.90
2019-05-06T22:54:09.147Z,57.60
2019-05-06T22:56:39.021Z,58.20
2019-05-06T22:59:08.784Z,58.40
2019-05-06T23:01:49.317Z,58.30
2019-05-06T23:04:21.742Z,58.70
2019-05-06T23:06:52.266Z,58.60
2019-05-06T23:09:22.881Z,58.60
2019-05-06T23:11:53.718Z,58.70
2019-05-06T23:14:31.195Z,58.40
2019-05-06T23:16:55.053Z,58.40
2019-05-06T23:19:24.941Z,58.30
2019-05-06T23:21:55.477Z,58.70
2019-05-06T23:24:25.285Z,58.90
2019-05-06T23:26:55.119Z,58.90
2019-05-06T23:29:25.833Z,59.00
2019-05-06T23:31:55.717Z,59.20
2019-05-06T23:34:25.589Z,59.20
2019-05-06T23:37:02.722Z,59.30
2019-05-06T23:40:17.224Z,59.50
2019-05-06T23:43:23.867Z,59.40
2019-05-06T23:46:32.409Z,59.40
2019-05-06T23:49:39.081Z,59.60
2019-05-06T23:52:45.821Z,59.60
2019-05-06T23:55:52.485Z,59.70
2019-05-06T23:58:22.502Z,59.50
